FD30 weather

Southeastern Airport
Fort Pierce, Florida, United States

Public forecast

Using degrees Fahrenheit for public forecast. Weather courtesy of forecast.io.

Closest aviation weather report (METAR) to Southeastern Airport

Closest report is St Lucie County International Airport, 9.8 nm (18.1 km) ENE. Retrieved 2019/10/14 16:53 UTC (48 minutes ago):

KFPR 141653Z 12009KT 10SM FEW031 SCT050 29/21 A3005 RMK AO2 SLP177 T02940211

Closest aviation forecast (TAF) to Southeastern Airport

Closest forecast is St Lucie County International Airport, 9.8 nm (18.1 km) ENE. Retrieved 2019/10/14 12:33 UTC (5 hours ago):

TAF KFPR 141131Z 1412/1512 VRB03KT P6SM FEW030 SCT070 FM141500 09006KT P6SM FEW025 FEW040 FM141800 09010KT P6SM SCT030 SCT060 FM150100 11003KT P6SM FEW030 FEW200